Airfield :
LOGIN :

Register | Disclaimer

   EN    FR    IT 

 










Legend :    VFR   Marginal VFR   IFR   Intensive IFR   Very Intensive IFR
Visi :
Ceiling :
>= 8 km
>= 3000ft
5 to 8 km
1000 to 3000 ft
1500m to 5 km
500 to 1000 ft
800 to 1500m
200 to 500 ft
< 800m
< 200 ft
Symbols :   Thunderstorms  Fog  Heavy snow  Heavy precipitations  Wind > 20 kt
SIGMETs :     Misc.  Thunderstorms  Icing  Turbulence  Mountain Waves  Volcanic Ashes






- Airport Elevation : 370 ft


EBBE - Beauvechain AB

CURRENT METAR :
  • 212025Z AUTO 01007KT 9999 NCD 07/03 Q1021 BLU

EXPIRED METARs :
  • 211955Z AUTO 01009KT 9999 NCD 08/03 Q1020 BLU
  • 211925Z AUTO 36011KT 9999 NCD 09/03 Q1020 BLU
  • 211855Z AUTO 36013KT 9999 NCD 10/04 Q1020 BLU
  • 211825Z AUTO 36012KT 9999 FEW037/// 11/05 Q1019 BLU
  • 211755Z AUTO 36012KT 9999 NCD 12/05 Q1018 BLU

TAF TAF EBBE
Valid from the 21 at 19:00 until the 22 at 07:00 UTC


211541Z 2119/2207 01005KT 9999 FEW025
BECMG 2120/2122 06010KT FEW240



MET'MAP, your aeronautical weather chart ! - Copyright ORBIFLY December 2007 - Disclaimer

ORBIFLY MET'MAP TEAM :

Programming & Development : Alexandra Zaïnal
Concept & original design : Baudouin d'Aumeries
Assistance for programming : Marc-Olivier Méhu
Technical & hardware support : Manuel Goepfert

Contact : metmap@orbifly.com




SOURCES & CREDITS :

   NOAA